createdAt,value
2017-12-08T00:00:27.693Z,95919.20
2017-12-08T00:02:55.254Z,95924.66
2017-12-08T00:05:22.834Z,95919.34
2017-12-08T00:07:50.411Z,95921.66
2017-12-08T00:10:17.980Z,95921.43
2017-12-08T00:12:45.549Z,95916.06
2017-12-08T00:15:13.308Z,95905.66
2017-12-08T00:17:40.870Z,95901.48
2017-12-08T00:20:08.458Z,95891.73
2017-12-08T00:22:36.035Z,95892.41
2017-12-08T00:25:03.577Z,95891.51
2017-12-08T00:27:31.161Z,95884.80
2017-12-08T00:29:58.710Z,95884.52
2017-12-08T00:32:26.258Z,95883.25
2017-12-08T00:34:53.833Z,95876.44
2017-12-08T00:37:21.434Z,95868.30
2017-12-08T00:39:48.998Z,95871.94
2017-12-08T00:42:16.581Z,95865.45
2017-12-08T00:44:44.165Z,95859.55
2017-12-08T00:47:11.713Z,95856.20
2017-12-08T00:49:39.291Z,95853.04
2017-12-08T00:52:06.889Z,95857.16
2017-12-08T00:54:34.455Z,95854.77
2017-12-08T00:57:02.048Z,95854.06
2017-12-08T00:59:29.622Z,95849.59
2017-12-08T01:01:57.221Z,95853.64
2017-12-08T01:04:25.045Z,95852.27
2017-12-08T01:06:52.770Z,95845.27
2017-12-08T01:09:20.365Z,95840.38
2017-12-08T01:11:47.975Z,95832.28
2017-12-08T01:14:15.554Z,95834.73
2017-12-08T01:16:43.147Z,95835.75
2017-12-08T01:19:10.955Z,95826.63
2017-12-08T01:21:38.513Z,95813.53
2017-12-08T01:24:06.086Z,95811.13
2017-12-08T01:26:33.679Z,95803.36
2017-12-08T01:29:01.249Z,95796.56
2017-12-08T01:31:28.843Z,95791.18
2017-12-08T01:33:56.418Z,95785.08
2017-12-08T01:36:24.161Z,95778.64
2017-12-08T01:38:51.769Z,95780.42
2017-12-08T01:41:19.383Z,95776.44
2017-12-08T01:43:46.949Z,95776.38
2017-12-08T01:46:14.531Z,95771.41
2017-12-08T01:48:44.492Z,95769.14
2017-12-08T01:51:12.954Z,95763.75
2017-12-08T01:53:40.545Z,95753.89
2017-12-08T01:56:08.108Z,95746.07
2017-12-08T01:58:35.691Z,95737.41
2017-12-08T02:01:03.361Z,95722.87
2017-12-08T02:03:30.877Z,95705.16
2017-12-08T02:05:58.434Z,95706.41
2017-12-08T02:08:26.024Z,95708.23
2017-12-08T02:10:53.589Z,95703.14
2017-12-08T02:13:21.133Z,95705.18
2017-12-08T02:15:48.777Z,95696.34
2017-12-08T02:18:16.338Z,95696.55
2017-12-08T02:20:43.900Z,95684.95
2017-12-08T02:23:11.635Z,95677.05
2017-12-08T02:25:39.261Z,95673.69
2017-12-08T02:28:06.867Z,95664.42
2017-12-08T02:30:34.443Z,95659.17
2017-12-08T02:33:02.007Z,95662.17
2017-12-08T02:35:29.610Z,95643.70
2017-12-08T02:37:57.229Z,95635.66
2017-12-08T02:40:24.802Z,95637.42
2017-12-08T02:42:52.352Z,95617.65
2017-12-08T02:45:19.924Z,95611.03
2017-12-08T02:47:47.530Z,95611.52
2017-12-08T02:50:15.094Z,95609.24
2017-12-08T02:52:42.629Z,95596.23
2017-12-08T02:55:10.500Z,95593.60
2017-12-08T02:57:38.090Z,95596.63
2017-12-08T03:00:05.833Z,95576.80
2017-12-08T03:02:33.383Z,95599.59
2017-12-08T03:05:00.972Z,95583.46
2017-12-08T03:07:28.537Z,95568.01
2017-12-08T03:09:57.649Z,95572.53
2017-12-08T03:12:25.270Z,95561.52
2017-12-08T03:14:52.824Z,95557.73
2017-12-08T03:17:20.414Z,95552.50
2017-12-08T03:19:48.789Z,95549.85
2017-12-08T03:22:16.346Z,95545.91
2017-12-08T03:24:43.935Z,95546.27
2017-12-08T03:27:11.506Z,95545.09
2017-12-08T03:29:39.075Z,95540.87
2017-12-08T03:32:06.629Z,95541.03
2017-12-08T03:34:34.233Z,95546.61
2017-12-08T03:37:02.365Z,95547.84
2017-12-08T03:39:30.008Z,95548.08
2017-12-08T03:41:57.648Z,95540.73
2017-12-08T03:44:25.234Z,95542.72
2017-12-08T03:46:52.834Z,95544.78
2017-12-08T03:49:20.932Z,95544.09
2017-12-08T03:51:48.507Z,95539.77
2017-12-08T03:54:16.062Z,95545.47
2017-12-08T03:56:43.765Z,95546.23
2017-12-08T03:59:11.322Z,95542.73
2017-12-08T04:01:38.875Z,95536.58
2017-12-08T04:04:06.474Z,95534.25
2017-12-08T04:06:34.069Z,95525.25
2017-12-08T04:09:06.482Z,95519.41
2017-12-08T04:11:36.021Z,95524.77
2017-12-08T04:14:04.489Z,95524.27
2017-12-08T04:16:32.416Z,95524.44
2017-12-08T04:19:01.101Z,95516.22
2017-12-08T04:21:29.582Z,95517.14
2017-12-08T04:23:57.162Z,95521.35
2017-12-08T04:26:24.795Z,95514.95
2017-12-08T04:28:52.341Z,95513.27
2017-12-08T04:31:19.905Z,95505.64
2017-12-08T04:33:47.486Z,95502.66
2017-12-08T04:36:15.070Z,95506.55
2017-12-08T04:38:42.631Z,95517.40
2017-12-08T04:41:10.289Z,95522.81
2017-12-08T04:43:37.844Z,95520.50
2017-12-08T04:46:05.392Z,95511.39
2017-12-08T04:48:32.961Z,95501.77
2017-12-08T04:51:00.509Z,95505.94
2017-12-08T04:53:28.250Z,95498.28
2017-12-08T04:55:55.808Z,95494.77
2017-12-08T04:58:23.520Z,95482.31
2017-12-08T05:00:51.069Z,95489.45
2017-12-08T05:03:18.656Z,95478.62
2017-12-08T05:05:46.221Z,95476.41
2017-12-08T05:08:13.813Z,95494.30
2017-12-08T05:10:41.448Z,95494.72
2017-12-08T05:13:09.022Z,95511.42
2017-12-08T05:15:36.722Z,95496.90
2017-12-08T05:18:04.522Z,95508.84
2017-12-08T05:20:32.087Z,95507.82
2017-12-08T05:22:59.712Z,95513.79
2017-12-08T05:25:27.279Z,95507.72
2017-12-08T05:27:54.845Z,95499.84
2017-12-08T05:30:22.439Z,95501.48
2017-12-08T05:32:50.004Z,95495.20
2017-12-08T05:35:17.559Z,95495.37
2017-12-08T05:37:45.159Z,95497.13
2017-12-08T05:40:12.745Z,95502.02
2017-12-08T05:42:40.292Z,95505.89
2017-12-08T05:45:07.946Z,95511.77
2017-12-08T05:47:35.517Z,95505.48
2017-12-08T05:50:03.077Z,95507.41
2017-12-08T05:52:30.685Z,95498.23
2017-12-08T05:54:58.266Z,95499.75
2017-12-08T05:57:25.815Z,95506.30
2017-12-08T05:59:53.410Z,95498.83
2017-12-08T06:02:21.037Z,95500.69
2017-12-08T06:04:48.601Z,95503.03
2017-12-08T06:07:16.202Z,95500.67
2017-12-08T06:09:43.767Z,95509.39
2017-12-08T06:12:11.338Z,95503.53
2017-12-08T06:14:38.873Z,95496.45
2017-12-08T06:17:06.522Z,95490.20
2017-12-08T06:19:34.083Z,95493.27
2017-12-08T06:22:01.657Z,95493.61
2017-12-08T06:24:29.270Z,95493.34
2017-12-08T06:26:56.841Z,95491.74
2017-12-08T06:29:24.424Z,95487.61
2017-12-08T06:31:52.071Z,95493.19
2017-12-08T06:34:19.675Z,95490.08
2017-12-08T06:36:47.253Z,95500.75
2017-12-08T06:39:15.453Z,95500.59
2017-12-08T06:41:43.078Z,95496.22
2017-12-08T06:44:10.648Z,95489.72
2017-12-08T06:46:38.264Z,95495.78
2017-12-08T06:49:05.840Z,95493.46
2017-12-08T06:51:33.410Z,95493.27
2017-12-08T06:54:00.990Z,95494.40
2017-12-08T06:56:28.561Z,95495.98
2017-12-08T06:58:56.121Z,95499.35
2017-12-08T07:01:23.693Z,95499.16
2017-12-08T07:03:51.242Z,95503.19
2017-12-08T07:06:18.806Z,95501.85
2017-12-08T07:08:46.398Z,95512.27
2017-12-08T07:11:13.971Z,95509.24
2017-12-08T07:13:41.543Z,95498.89
2017-12-08T07:16:09.266Z,95505.80
2017-12-08T07:18:36.846Z,95505.28
2017-12-08T07:21:04.409Z,95510.11
2017-12-08T07:23:31.971Z,95503.48
2017-12-08T07:25:59.541Z,95505.73
2017-12-08T07:28:27.116Z,95503.78
2017-12-08T07:30:55.179Z,95509.11
2017-12-08T07:33:22.915Z,95499.64
2017-12-08T07:35:50.491Z,95500.42
2017-12-08T07:38:18.057Z,95508.80
2017-12-08T07:40:45.618Z,95506.48
2017-12-08T07:43:13.427Z,95502.08
2017-12-08T07:45:41.003Z,95504.18
2017-12-08T07:48:08.573Z,95499.96
2017-12-08T07:50:36.160Z,95494.53
2017-12-08T07:53:03.756Z,95495.52
2017-12-08T07:55:31.307Z,95496.03
2017-12-08T07:57:59.008Z,95492.69
2017-12-08T08:00:26.597Z,95484.52
2017-12-08T08:02:54.141Z,95486.78
2017-12-08T08:05:21.727Z,95484.40
2017-12-08T08:07:49.296Z,95480.45
2017-12-08T08:10:16.871Z,95477.69
2017-12-08T08:12:44.486Z,95471.72
2017-12-08T08:15:12.042Z,95473.63
2017-12-08T08:17:39.611Z,95471.14
2017-12-08T08:20:07.216Z,95473.32
2017-12-08T08:22:34.781Z,95470.27
2017-12-08T08:25:02.346Z,95464.17
2017-12-08T08:27:29.946Z,95457.66
2017-12-08T08:29:57.501Z,95450.97
2017-12-08T08:32:25.060Z,95460.08
2017-12-08T08:34:52.662Z,95467.53
2017-12-08T08:37:20.212Z,95472.29
2017-12-08T08:39:47.792Z,95467.92
2017-12-08T08:42:15.393Z,95473.91
2017-12-08T08:44:42.929Z,95461.00
2017-12-08T08:47:10.701Z,95453.75
2017-12-08T08:49:38.292Z,95465.52
2017-12-08T08:52:05.848Z,95459.06
2017-12-08T08:54:33.419Z,95469.94
2017-12-08T08:57:00.985Z,95472.61
2017-12-08T08:59:28.545Z,95481.55
2017-12-08T09:01:56.136Z,95481.41
2017-12-08T09:04:23.707Z,95470.93
2017-12-08T09:06:51.280Z,95481.71
2017-12-08T09:09:18.920Z,95477.52
2017-12-08T09:11:46.552Z,95480.68
2017-12-08T09:14:14.097Z,95478.77
2017-12-08T09:16:41.653Z,95481.48
2017-12-08T09:19:09.332Z,95477.81
2017-12-08T09:21:36.901Z,95481.97
2017-12-08T09:24:04.476Z,95487.66
2017-12-08T09:26:32.115Z,95492.86
2017-12-08T09:28:59.690Z,95488.30
2017-12-08T09:31:27.265Z,95490.14
2017-12-08T09:33:55.025Z,95486.51
2017-12-08T09:36:22.626Z,95474.66
2017-12-08T09:38:50.225Z,95477.39
2017-12-08T09:41:17.818Z,95467.25
2017-12-08T09:43:45.409Z,95470.77
2017-12-08T09:46:12.976Z,95475.17
2017-12-08T09:48:40.542Z,95459.17
2017-12-08T09:51:08.108Z,95468.97
2017-12-08T09:53:35.652Z,95457.00
2017-12-08T09:56:03.267Z,95459.05
2017-12-08T09:58:30.880Z,95458.31
2017-12-08T10:00:58.413Z,95448.06
2017-12-08T10:03:25.977Z,95445.48
2017-12-08T10:05:53.554Z,95442.70
2017-12-08T10:08:21.101Z,95450.30
2017-12-08T10:10:48.666Z,95448.20
2017-12-08T10:13:16.225Z,95438.64
2017-12-08T10:15:43.813Z,95438.31
2017-12-08T10:18:11.416Z,95427.01
2017-12-08T10:20:38.984Z,95428.48
2017-12-08T10:23:06.566Z,95423.41
2017-12-08T10:25:34.162Z,95421.17
2017-12-08T10:28:01.773Z,95423.45
2017-12-08T10:30:30.391Z,95420.37
2017-12-08T10:32:57.965Z,95418.42
2017-12-08T10:35:25.535Z,95421.42
2017-12-08T10:37:53.134Z,95415.73
2017-12-08T10:40:20.669Z,95431.19
2017-12-08T10:42:48.252Z,95426.09
2017-12-08T10:45:15.830Z,95418.70
2017-12-08T10:47:43.401Z,95416.27
2017-12-08T10:50:10.960Z,95412.03
2017-12-08T10:52:38.542Z,95414.77
2017-12-08T10:55:06.165Z,95412.52
2017-12-08T10:57:33.729Z,95407.42
2017-12-08T11:00:01.333Z,95415.74
2017-12-08T11:02:28.874Z,95416.09
2017-12-08T11:04:56.488Z,95411.42
2017-12-08T11:07:24.144Z,95419.27
2017-12-08T11:09:52.428Z,95413.52
2017-12-08T11:12:20.123Z,95417.14
2017-12-08T11:14:47.691Z,95404.09
2017-12-08T11:17:15.243Z,95402.27
2017-12-08T11:19:48.976Z,95409.52
2017-12-08T11:22:16.715Z,95392.84
2017-12-08T11:24:44.477Z,95399.38
2017-12-08T11:27:12.080Z,95394.89
2017-12-08T11:29:39.620Z,95385.25
2017-12-08T11:32:07.201Z,95393.29
2017-12-08T11:34:34.907Z,95384.20
2017-12-08T11:37:02.533Z,95382.00
2017-12-08T11:39:30.149Z,95381.70
2017-12-08T11:41:57.772Z,95375.11
2017-12-08T11:44:25.348Z,95374.97
2017-12-08T11:46:52.905Z,95369.95
2017-12-08T11:49:20.514Z,95363.97
2017-12-08T11:51:48.850Z,95368.31
2017-12-08T11:54:16.402Z,95376.00
2017-12-08T11:56:43.976Z,95368.77
2017-12-08T11:59:11.584Z,95374.20
2017-12-08T12:01:39.169Z,95371.23
2017-12-08T12:04:06.733Z,95367.46
2017-12-08T12:06:34.333Z,95368.25
2017-12-08T12:09:01.873Z,95374.05
2017-12-08T12:11:29.553Z,95365.05
2017-12-08T12:13:57.096Z,95355.34
2017-12-08T12:16:24.841Z,95357.09
2017-12-08T12:18:52.412Z,95352.47
2017-12-08T12:21:19.978Z,95346.20
2017-12-08T12:23:47.549Z,95345.45
2017-12-08T12:26:15.118Z,95343.23
2017-12-08T12:28:42.693Z,95344.61
2017-12-08T12:31:10.348Z,95343.27
2017-12-08T12:33:37.888Z,95337.66
2017-12-08T12:36:05.646Z,95317.39
2017-12-08T12:38:33.184Z,95339.18
2017-12-08T12:41:00.733Z,95345.21
2017-12-08T12:43:28.314Z,95338.54
2017-12-08T12:45:55.867Z,95332.83
2017-12-08T12:48:23.437Z,95332.51
2017-12-08T12:50:51.041Z,95331.94
2017-12-08T12:53:18.606Z,95339.14
2017-12-08T12:55:46.153Z,95337.93
2017-12-08T12:58:13.742Z,95339.48
2017-12-08T13:00:41.314Z,95337.04
2017-12-08T13:03:09.106Z,95334.20
2017-12-08T13:05:36.751Z,95328.51
2017-12-08T13:08:04.439Z,95329.28
2017-12-08T13:10:31.987Z,95328.37
2017-12-08T13:12:59.568Z,95335.49
2017-12-08T13:15:27.196Z,95333.31
2017-12-08T13:17:54.753Z,95330.75
2017-12-08T13:20:22.310Z,95342.45
2017-12-08T13:22:49.857Z,95332.31
2017-12-08T13:25:17.402Z,95330.97
2017-12-08T13:27:45.002Z,95344.20
2017-12-08T13:30:12.622Z,95351.47
2017-12-08T13:32:40.169Z,95345.47
2017-12-08T13:35:08.129Z,95340.34
2017-12-08T13:37:36.344Z,95339.99
2017-12-08T13:40:03.897Z,95334.30
2017-12-08T13:42:31.513Z,95328.55
2017-12-08T13:44:59.116Z,95335.31
2017-12-08T13:47:26.685Z,95332.57
2017-12-08T13:49:54.294Z,95330.15
2017-12-08T13:52:22.063Z,95333.89
2017-12-08T13:55:01.355Z,95337.28
2017-12-08T13:57:30.956Z,95348.62
2017-12-08T13:59:58.516Z,95343.52
2017-12-08T14:02:26.080Z,95327.94
2017-12-08T14:04:53.652Z,95331.09
2017-12-08T14:07:21.228Z,95328.21
2017-12-08T14:09:48.801Z,95327.90
2017-12-08T14:12:16.332Z,95338.45
2017-12-08T14:14:43.925Z,95338.86
2017-12-08T14:17:11.526Z,95349.03
2017-12-08T14:19:39.081Z,95362.70
2017-12-08T14:22:06.653Z,95371.55
2017-12-08T14:24:34.210Z,95384.42
2017-12-08T14:27:01.752Z,95402.41
2017-12-08T14:29:29.414Z,95412.44
2017-12-08T14:31:56.966Z,95417.71
2017-12-08T14:34:24.705Z,95436.74
2017-12-08T14:36:52.316Z,95450.17
2017-12-08T14:39:19.931Z,95455.86
2017-12-08T14:41:47.462Z,95466.84
2017-12-08T14:44:15.049Z,95468.84
2017-12-08T14:46:42.580Z,95457.58
2017-12-08T14:49:11.378Z,95463.35
2017-12-08T14:51:39.046Z,95461.03
2017-12-08T14:54:06.774Z,95448.17
2017-12-08T14:56:34.361Z,95456.03
2017-12-08T14:59:01.922Z,95452.97
2017-12-08T15:01:29.443Z,95445.00
2017-12-08T15:03:57.024Z,95439.09
2017-12-08T15:06:24.595Z,95439.72
2017-12-08T15:08:52.142Z,95452.86
2017-12-08T15:11:19.761Z,95452.30
2017-12-08T15:13:47.380Z,95466.73
2017-12-08T15:16:18.332Z,95474.64
2017-12-08T15:18:45.924Z,95483.53
2017-12-08T15:21:13.495Z,95483.85
2017-12-08T15:23:41.161Z,95475.78
2017-12-08T15:26:08.739Z,95490.24
2017-12-08T15:28:36.349Z,95490.37
2017-12-08T15:31:03.897Z,95480.91
2017-12-08T15:33:31.606Z,95480.21
2017-12-08T15:35:59.430Z,95484.03
2017-12-08T15:38:27.006Z,95479.07
2017-12-08T15:40:54.575Z,95478.78
2017-12-08T15:43:22.172Z,95474.41
2017-12-08T15:45:49.713Z,95468.43
2017-12-08T15:48:17.237Z,95478.64
2017-12-08T15:50:44.875Z,95480.70
2017-12-08T15:53:12.661Z,95485.98
2017-12-08T15:55:40.282Z,95488.55
2017-12-08T15:58:07.878Z,95500.25
2017-12-08T16:00:35.680Z,95504.58
2017-12-08T16:03:03.284Z,95507.92
2017-12-08T16:05:30.930Z,95512.80
2017-12-08T16:07:58.508Z,95514.63
2017-12-08T16:10:26.183Z,95513.13
2017-12-08T16:12:53.737Z,95516.23
2017-12-08T16:15:21.305Z,95523.08
2017-12-08T16:17:48.893Z,95520.73
2017-12-08T16:20:16.430Z,95518.61
2017-12-08T16:22:44.009Z,95528.67
2017-12-08T16:25:11.864Z,95520.20
2017-12-08T16:27:39.428Z,95516.53
2017-12-08T16:30:07.033Z,95513.77
2017-12-08T16:32:34.616Z,95515.66
2017-12-08T16:35:02.161Z,95509.15
2017-12-08T16:37:29.798Z,95515.27
2017-12-08T16:39:57.345Z,95511.37
2017-12-08T16:42:24.903Z,95511.35
2017-12-08T16:44:52.456Z,95520.11
2017-12-08T16:47:20.011Z,95522.38
2017-12-08T16:49:47.580Z,95528.34
2017-12-08T16:52:15.141Z,95514.89
2017-12-08T16:54:42.686Z,95522.27
2017-12-08T16:57:10.445Z,95522.91
2017-12-08T16:59:38.512Z,95510.48
2017-12-08T17:02:06.073Z,95521.19
2017-12-08T17:04:33.658Z,95510.69
2017-12-08T17:07:01.229Z,95512.45
2017-12-08T17:09:28.842Z,95506.58
2017-12-08T17:11:56.346Z,95490.52
2017-12-08T17:14:23.901Z,95480.52
2017-12-08T17:16:51.504Z,95484.44
2017-12-08T17:19:19.040Z,95483.46
2017-12-08T17:21:46.618Z,95476.20
2017-12-08T17:24:14.238Z,95479.63
2017-12-08T17:26:42.025Z,95487.52
2017-12-08T17:29:09.840Z,95488.28
2017-12-08T17:31:37.427Z,95490.02
2017-12-08T17:34:05.040Z,95490.72
2017-12-08T17:36:32.655Z,95496.25
2017-12-08T17:39:00.218Z,95498.02
2017-12-08T17:41:27.821Z,95493.46
2017-12-08T17:43:55.382Z,95493.28
2017-12-08T17:46:22.922Z,95501.78
2017-12-08T17:48:50.485Z,95500.52
2017-12-08T17:51:18.037Z,95495.40
2017-12-08T17:53:45.630Z,95491.58
2017-12-08T17:56:13.200Z,95494.55
2017-12-08T17:58:40.750Z,95494.69
2017-12-08T18:01:08.329Z,95496.80
2017-12-08T18:03:35.860Z,95496.48
2017-12-08T18:06:03.467Z,95500.12
2017-12-08T18:08:31.017Z,95492.22
2017-12-08T18:10:58.577Z,95504.39
2017-12-08T18:13:26.393Z,95506.13
2017-12-08T18:15:53.950Z,95492.60
2017-12-08T18:18:21.533Z,95492.48
2017-12-08T18:20:49.154Z,95498.25
2017-12-08T18:23:16.706Z,95502.34
2017-12-08T18:25:44.250Z,95496.78
2017-12-08T18:28:11.860Z,95496.48
2017-12-08T18:30:39.396Z,95481.30
2017-12-08T18:33:07.050Z,95492.38
2017-12-08T18:35:34.629Z,95487.06
2017-12-08T18:38:02.203Z,95496.78
2017-12-08T18:40:29.769Z,95495.61
2017-12-08T18:42:57.353Z,95503.16
2017-12-08T18:45:24.920Z,95504.98
2017-12-08T18:47:52.490Z,95515.47
2017-12-08T18:50:20.936Z,95511.94
2017-12-08T18:52:48.512Z,95521.91
2017-12-08T18:55:16.080Z,95512.88
2017-12-08T18:57:43.722Z,95539.85
2017-12-08T19:00:11.271Z,95531.68
2017-12-08T19:02:38.834Z,95525.80
2017-12-08T19:05:08.383Z,95517.20
2017-12-08T19:07:36.054Z,95515.49
2017-12-08T19:10:05.102Z,95524.48
2017-12-08T19:12:32.805Z,95515.19
2017-12-08T19:15:00.384Z,95502.56
2017-12-08T19:17:27.946Z,95500.98
2017-12-08T19:19:55.496Z,95500.37
2017-12-08T19:22:23.096Z,95481.56
2017-12-08T19:24:50.662Z,95481.56
2017-12-08T19:27:18.249Z,95475.25
2017-12-08T19:29:45.810Z,95463.56
2017-12-08T19:32:13.371Z,95478.32
2017-12-08T19:34:40.932Z,95476.23
2017-12-08T19:37:09.053Z,95489.26
2017-12-08T19:39:36.619Z,95479.42
2017-12-08T19:42:04.184Z,95485.33
2017-12-08T19:44:31.761Z,95486.50
2017-12-08T19:46:59.358Z,95481.45
2017-12-08T19:49:26.908Z,95479.89
2017-12-08T19:51:54.493Z,95473.48
2017-12-08T19:54:22.035Z,95473.63
2017-12-08T19:56:49.608Z,95470.94
2017-12-08T19:59:17.197Z,95464.53
2017-12-08T20:01:45.379Z,95461.07
2017-12-08T20:04:13.009Z,95458.72
2017-12-08T20:06:40.577Z,95458.83
2017-12-08T20:09:08.243Z,95461.33
2017-12-08T20:11:35.780Z,95451.58
2017-12-08T20:14:03.404Z,95457.89
2017-12-08T20:16:30.958Z,95451.34
2017-12-08T20:18:58.659Z,95458.42
2017-12-08T20:21:26.212Z,95467.94
2017-12-08T20:23:53.801Z,95451.28
2017-12-08T20:26:21.367Z,95452.54
2017-12-08T20:28:48.908Z,95456.53
2017-12-08T20:31:16.471Z,95455.18
2017-12-08T20:33:44.032Z,95458.00
2017-12-08T20:36:11.587Z,95455.21
2017-12-08T20:38:39.140Z,95464.22
2017-12-08T20:41:06.779Z,95481.45
2017-12-08T20:43:34.333Z,95482.88
2017-12-08T20:46:01.841Z,95481.94
2017-12-08T20:48:29.387Z,95474.77
2017-12-08T20:50:56.962Z,95475.27
2017-12-08T20:53:24.589Z,95469.23
2017-12-08T20:55:52.136Z,95462.28
2017-12-08T20:58:19.718Z,95456.38
2017-12-08T21:00:47.314Z,95435.80
2017-12-08T21:03:14.929Z,95432.35
2017-12-08T21:05:42.514Z,95451.72
2017-12-08T21:08:10.130Z,95452.55
2017-12-08T21:10:37.706Z,95447.95
2017-12-08T21:13:05.313Z,95459.39
2017-12-08T21:15:33.506Z,95462.91
2017-12-08T21:18:01.045Z,95472.23
2017-12-08T21:20:28.597Z,95464.26
2017-12-08T21:22:56.183Z,95470.30
2017-12-08T21:25:23.751Z,95482.53
2017-12-08T21:27:51.314Z,95499.02
2017-12-08T21:30:18.906Z,95500.00
2017-12-08T21:32:46.467Z,95496.28
2017-12-08T21:35:14.006Z,95489.55
2017-12-08T21:37:41.584Z,95486.64
2017-12-08T21:40:09.143Z,95498.74
2017-12-08T21:42:36.678Z,95471.91
2017-12-08T21:45:04.503Z,95466.30
2017-12-08T21:47:32.088Z,95478.14
2017-12-08T21:49:59.632Z,95475.13
2017-12-08T21:52:27.219Z,95473.27
2017-12-08T21:54:54.764Z,95476.06
2017-12-08T21:57:22.320Z,95462.48
2017-12-08T21:59:49.946Z,95464.67
2017-12-08T22:02:17.521Z,95447.66
2017-12-08T22:04:45.071Z,95436.66
2017-12-08T22:07:12.618Z,95437.81
2017-12-08T22:09:40.224Z,95443.27
2017-12-08T22:12:07.811Z,95453.48
2017-12-08T22:14:35.387Z,95445.38
2017-12-08T22:17:02.976Z,95441.77
2017-12-08T22:19:30.537Z,95442.56
2017-12-08T22:21:58.150Z,95439.52
2017-12-08T22:24:25.741Z,95440.92
2017-12-08T22:26:53.298Z,95450.00
2017-12-08T22:29:20.921Z,95464.38
2017-12-08T22:31:48.498Z,95477.70
2017-12-08T22:34:16.059Z,95493.70
2017-12-08T22:36:43.606Z,95486.32
2017-12-08T22:39:11.206Z,95474.45
2017-12-08T22:41:38.795Z,95472.25
2017-12-08T22:44:06.379Z,95473.97
2017-12-08T22:46:34.009Z,95482.45
2017-12-08T22:49:01.542Z,95478.83
2017-12-08T22:51:29.089Z,95466.30
2017-12-08T22:53:56.686Z,95447.56
2017-12-08T22:56:24.316Z,95431.34
2017-12-08T22:58:51.873Z,95422.22
2017-12-08T23:01:19.472Z,95413.50
2017-12-08T23:03:47.064Z,95411.91
2017-12-08T23:06:14.621Z,95401.98
2017-12-08T23:08:42.224Z,95398.73
2017-12-08T23:11:09.779Z,95396.14
2017-12-08T23:13:37.367Z,95403.09
2017-12-08T23:16:04.930Z,95408.25
2017-12-08T23:18:32.473Z,95404.87
2017-12-08T23:21:00.058Z,95395.66
2017-12-08T23:23:27.615Z,95394.81
2017-12-08T23:25:55.190Z,95402.11
2017-12-08T23:28:22.735Z,95414.64
2017-12-08T23:30:50.310Z,95431.31
2017-12-08T23:33:17.862Z,95437.09
2017-12-08T23:35:45.398Z,95435.06
2017-12-08T23:38:12.938Z,95429.70
2017-12-08T23:40:40.596Z,95414.13
2017-12-08T23:43:08.476Z,95419.69
2017-12-08T23:45:36.035Z,95437.38
2017-12-08T23:48:03.637Z,95424.95
2017-12-08T23:50:31.196Z,95422.84
2017-12-08T23:52:58.753Z,95424.52
2017-12-08T23:55:26.460Z,95419.98
2017-12-08T23:57:54.041Z,95409.48
